• Join FlightAware (Why Join?)
  • Login
  • US Flag GB Flag 
11:06 EDT


 

Airport Tracker/Info


-or-


 

Live Flight TrackerFlight Track Log ✈ LJY630 ✈ 18-Jun-2014 ✈ KPIT - KLWB

Flight Track Log - Related Links

Times and Time Zones

All times are in EDT time to prevent confusion due to time zone crossing. See the LJY630 flight status page for this flight to view local times or setup timezone preferences in your user account.

Time Position Orientation Groundspeed Altitude Reporting Facility
EDT Latitude Longitude Course Direction KTS MPH feet Rate Location/Type
12:49 40.3903 -80.0858 180° South 282 325 5,100  Level Cleveland Center
12:50 40.3186 -80.0761 174° South 278 320 7,700 3,480 Climbing Cleveland Center
12:51 40.2278 -80.0906 187° South 276 318 12,300 3,780 Climbing Cleveland Center
12:52 40.1508 -80.1061 189° South 275 316 15,500 2,880 Climbing Cleveland Center
12:53 39.8561 -80.2462 187° South  Level FlightAware Approximate
12:53 40.0711 -80.1178 186° South 284 327 18,300  Level Cleveland Center
12:54 39.7683 -80.2500 180° South  Level FlightAware Approximate
12:54 39.9867 -80.1286 186° South 300 345 20,000  Level Cleveland Center
12:55 39.8831 -80.1528 190° South 369 425 20,000  Level Cleveland Center
12:56 39.7719 -80.1736 188° South 400 460 20,000  Level Cleveland Center
12:57 39.6703 -80.2375 206° Southwest 403 464 20,000  Level Cleveland Center
12:58 39.5397 -80.2761 193° South 405 466 20,000  Level Cleveland Center
12:59 39.4242 -80.2736 179° South 412 474 20,000  Level Cleveland Center
13:00 39.3111 -80.2694 178° South 410 472 20,000  Level Cleveland Center
13:01 39.1972 -80.2717 181° South 410 472 20,000  Level Cleveland Center
13:02 39.0847 -80.2847 185° South 407 468 20,000  Level Cleveland Center
13:03 38.9719 -80.2969 185° South 407 468 20,000 -180 Level Cleveland Center
13:04 38.8631 -80.3061 184° South 396 456 19,700 -1,140 Descending Cleveland Center
13:05 38.7378 -80.3194 185° South 377 434 17,700 -1,800 Descending Cleveland Center
13:06 38.6306 -80.3300 184° South 385 443 16,100 -1,800 Descending Cleveland Center
13:07 38.5269 -80.3403 184° South 373 429 14,100 -2,100 Descending Cleveland Center
13:08 38.4300 -80.3494 184° South 358 412 11,900 -1,560 Descending Cleveland Center
13:09 38.3392 -80.3594 185° South 341 392 10,900 -660 Descending Cleveland Center
13:10 38.2506 -80.3658 183° South 330 380 10,600 -360 Descending Cleveland Center
13:11 38.1719 -80.4339 214° Southwest 318 366 10,200 -1,860 Descending Cleveland Center
13:13 38.0708 -80.3925 162° South 302 348 6,700 -1,860 Descending Washington Center
13:14 37.9958 -80.3956 182° South 290 334 6,400 -900 Descending Washington Center
13:15 37.9222 -80.4067 187° South 285 328 5,000 -1,140 Descending Washington Center
13:16 37.8664 -80.4453 209° Southwest 253 291 4,200 -900 Descending Washington Center
13:17 37.8203 -80.4553 190° South 189 217 3,300 -480 Descending Washington Center
13:18 37.8606 -80.3842 54° Northeast 189 217 3,300  Level Washington Center